Terminal Aerodrome Forecast
Issued by NWS

Home | Current Version | Previous Version | Text Only | Print | Product List | Glossary On
Versions: 1 2 3 4 5 6 7 8 9 10 11 12
000
FTUS42 KGSP 312322
TAFGMU
TAF
KGMU 312322Z 0100/0124 23005KT P6SM BKN130
     FM011700 20008KT P6SM BKN060
     FM012000 20008KT P6SM OVC030
     FM012300 11005KT P6SM OVC020=

USA.gov is the U.S. government's official web portal to all federal, state and local government web resources and services.